Airfield :
LOGIN :

Register | Disclaimer

   EN    FR    IT 

 










Legend :    VFR   Marginal VFR   IFR   Intensive IFR   Very Intensive IFR
Visi :
Ceiling :
>= 8 km
>= 3000ft
5 to 8 km
1000 to 3000 ft
1500m to 5 km
500 to 1000 ft
800 to 1500m
200 to 500 ft
< 800m
< 200 ft
Symbols :   Thunderstorms  Fog  Heavy snow  Heavy precipitations  Wind > 20 kt
SIGMETs :     Misc.  Thunderstorms  Icing  Turbulence  Mountain Waves  Volcanic Ashes






- Airport Elevation : 18 ft
- IATA code : AJA


LFKJ - Ajaccio

CURRENT METAR :
  • 231830Z AUTO VRB02KT CAVOK 20/13 Q1018 NOSIG

EXPIRED METARs :
  • 231800Z AUTO 35005KT 280V030 CAVOK 21/13 Q1017 NOSIG
  • 231730Z AUTO 29006KT 240V350 CAVOK 22/13 Q1017 NOSIG
  • 231700Z AUTO 22009KT CAVOK 21/15 Q1017 NOSIG
  • 231630Z AUTO 21010KT CAVOK 22/15 Q1017 BECMG 05003KT
  • 231600Z AUTO 21010KT CAVOK 22/15 Q1017 NOSIG
  • 231530Z AUTO 21010KT CAVOK 23/14 Q1018 NOSIG
  • 231500Z AUTO 22011KT CAVOK 23/14 Q1018 NOSIG
  • 231430Z AUTO 22011KT CAVOK 23/15 Q1018 NOSIG
  • 231400Z AUTO 23012KT CAVOK 23/14 Q1018 NOSIG

TAF TAF LFKJ
Valid from the 23 at 15:00 until the 24 at 15:00 UTC


231400Z 2315/2415 23010KT CAVOK
BECMG 2318/2320 05003KT
BECMG 2408/2410 24010KT
ATIS : +33 4 95 23 59 85



MET'MAP, your aeronautical weather chart ! - Copyright ORBIFLY December 2007 - Disclaimer

ORBIFLY MET'MAP TEAM :

Programming & Development : Alexandra Zaïnal
Original concept : Baudouin d'Aumeries
Technical & hardware support : Manuel Goepfert
Assistance : Marc-Olivier Méhu




SOURCES & CREDITS :

   NOAA